createdAt,value
2022-11-26T00:00:30.826Z,6.88
2022-11-26T00:03:33.333Z,7.00
2022-11-26T00:06:42.986Z,7.03
2022-11-26T00:09:45.494Z,7.07
2022-11-26T00:12:48.261Z,6.50
2022-11-26T00:15:51.660Z,7.00
2022-11-26T00:18:54.464Z,6.60
2022-11-26T00:21:57.089Z,6.70
2022-11-26T00:24:59.820Z,6.88
2022-11-26T00:28:02.368Z,6.90
2022-11-26T00:31:07.372Z,6.65
2022-11-26T00:34:09.936Z,6.85
2022-11-26T00:37:20.977Z,6.80
2022-11-26T00:40:27.163Z,7.07
2022-11-26T00:43:29.679Z,7.00
2022-11-26T00:46:32.126Z,6.28
2022-11-26T00:49:34.632Z,6.95
2022-11-26T00:52:37.102Z,6.47
2022-11-26T00:55:42.499Z,6.95
2022-11-26T00:58:46.284Z,6.43
2022-11-26T01:01:49.872Z,6.72
2022-11-26T01:04:52.548Z,6.50
2022-11-26T01:07:59.015Z,6.90
2022-11-26T01:11:04.170Z,7.25
2022-11-26T01:14:07.063Z,7.17
2022-11-26T01:17:12.696Z,6.95
2022-11-26T01:20:25.157Z,6.90
2022-11-26T01:23:28.012Z,7.40
2022-11-26T01:26:37.105Z,6.80
2022-11-26T01:29:39.724Z,6.97
2022-11-26T01:32:42.329Z,7.47
2022-11-26T01:35:45.026Z,6.78
2022-11-26T01:38:47.977Z,6.30
2022-11-26T01:42:08.456Z,7.30
2022-11-26T01:45:19.360Z,6.70
2022-11-26T01:48:29.542Z,6.68
2022-11-26T01:51:32.123Z,6.75
2022-11-26T01:54:38.354Z,6.75
2022-11-26T01:57:40.980Z,6.65
2022-11-26T02:00:44.397Z,6.43
2022-11-26T02:03:57.114Z,6.70
2022-11-26T02:06:59.726Z,6.93
2022-11-26T02:10:02.415Z,6.57
2022-11-26T02:13:05.833Z,6.55
2022-11-26T02:16:25.160Z,6.67
2022-11-26T02:19:52.292Z,6.93
2022-11-26T02:23:05.567Z,6.78
2022-11-26T02:26:26.133Z,7.50
2022-11-26T02:29:53.421Z,6.70
2022-11-26T02:33:11.674Z,6.27
2022-11-26T02:36:38.438Z,6.72
2022-11-26T02:39:41.257Z,6.35
2022-11-26T02:42:43.723Z,6.75
2022-11-26T02:45:52.893Z,6.15
2022-11-26T02:48:55.553Z,6.50
2022-11-26T02:52:01.948Z,6.82
2022-11-26T02:55:07.380Z,6.88
2022-11-26T02:58:10.256Z,6.03
2022-11-26T03:01:33.011Z,6.45
2022-11-26T03:04:40.974Z,6.40
2022-11-26T03:07:46.543Z,6.65
2022-11-26T03:10:49.284Z,6.50
2022-11-26T03:13:51.696Z,6.38
2022-11-26T03:16:56.689Z,6.28
2022-11-26T03:20:01.799Z,6.57
2022-11-26T03:23:04.635Z,6.68
2022-11-26T03:26:07.255Z,6.75
2022-11-26T03:29:09.703Z,6.55
2022-11-26T03:32:12.232Z,6.65
2022-11-26T03:35:14.791Z,6.13
2022-11-26T03:38:18.009Z,6.75
2022-11-26T03:41:20.812Z,6.75
2022-11-26T03:44:23.336Z,6.70
2022-11-26T03:47:27.371Z,6.32
2022-11-26T03:50:29.895Z,6.57
2022-11-26T03:53:32.526Z,6.22
2022-11-26T03:56:35.034Z,6.78
2022-11-26T03:59:37.807Z,6.90
2022-11-26T04:02:40.374Z,6.45
2022-11-26T04:05:44.286Z,6.77
2022-11-26T04:08:47.001Z,6.68
2022-11-26T04:11:49.755Z,6.70
2022-11-26T04:14:53.034Z,7.38
2022-11-26T04:17:55.652Z,7.00
2022-11-26T04:20:58.118Z,7.20
2022-11-26T04:24:01.978Z,6.68
2022-11-26T04:27:04.540Z,6.65
2022-11-26T04:30:08.488Z,7.13
2022-11-26T04:33:11.162Z,6.70
2022-11-26T04:36:13.634Z,6.27
2022-11-26T04:39:16.189Z,6.97
2022-11-26T04:42:18.769Z,7.47
2022-11-26T04:45:21.266Z,7.47
2022-11-26T04:48:23.799Z,7.40
2022-11-26T04:51:27.341Z,7.20
2022-11-26T04:54:30.516Z,7.97
2022-11-26T04:57:33.064Z,7.18
2022-11-26T05:00:36.014Z,8.02
2022-11-26T05:03:38.558Z,8.48
2022-11-26T05:06:40.956Z,7.13
2022-11-26T05:09:43.624Z,7.40
2022-11-26T05:12:46.148Z,7.93
2022-11-26T05:15:48.659Z,7.70
2022-11-26T05:18:51.150Z,8.07
2022-11-26T05:21:53.600Z,7.43
2022-11-26T05:24:56.123Z,7.45
2022-11-26T05:27:58.695Z,7.93
2022-11-26T05:31:02.463Z,7.43
2022-11-26T05:34:05.221Z,7.80
2022-11-26T05:37:08.246Z,7.57
2022-11-26T05:40:11.681Z,7.53
2022-11-26T05:43:14.273Z,7.70
2022-11-26T05:46:18.639Z,7.43
2022-11-26T05:49:21.445Z,7.70
2022-11-26T05:52:24.672Z,7.23
2022-11-26T05:55:27.259Z,7.40
2022-11-26T05:58:29.813Z,7.82
2022-11-26T06:01:32.354Z,7.13
2022-11-26T06:04:35.172Z,6.70
2022-11-26T06:07:43.277Z,7.03
2022-11-26T06:10:48.463Z,6.80
2022-11-26T06:13:50.926Z,7.25
2022-11-26T06:16:53.525Z,7.10
2022-11-26T06:19:56.068Z,7.45
2022-11-26T06:22:58.560Z,7.07
2022-11-26T06:26:01.503Z,6.93
2022-11-26T06:29:04.103Z,7.20
2022-11-26T06:32:06.757Z,7.03
2022-11-26T06:35:09.840Z,7.40
2022-11-26T06:38:12.428Z,6.60
2022-11-26T06:41:14.874Z,6.60
2022-11-26T06:44:17.380Z,6.82
2022-11-26T06:47:19.834Z,6.90
2022-11-26T06:50:23.273Z,6.80
2022-11-26T06:53:25.959Z,6.60
2022-11-26T06:56:28.829Z,6.38
2022-11-26T06:59:31.673Z,6.55
2022-11-26T07:02:34.135Z,6.75
2022-11-26T07:05:37.905Z,6.38
2022-11-26T07:08:40.418Z,6.57
2022-11-26T07:11:43.319Z,6.57
2022-11-26T07:14:46.938Z,6.78
2022-11-26T07:17:49.588Z,6.80
2022-11-26T07:20:53.687Z,6.80
2022-11-26T07:23:56.381Z,6.30
2022-11-26T07:26:58.914Z,6.68
2022-11-26T07:30:01.901Z,6.25
2022-11-26T07:33:05.509Z,6.22
2022-11-26T07:36:13.908Z,6.53
2022-11-26T07:39:16.565Z,6.60
2022-11-26T07:42:19.071Z,6.47
2022-11-26T07:45:21.976Z,6.53
2022-11-26T07:48:24.508Z,6.80
2022-11-26T07:51:29.580Z,6.50
2022-11-26T07:54:32.306Z,6.10
2022-11-26T07:57:34.849Z,6.38
2022-11-26T08:00:37.459Z,6.50
2022-11-26T08:03:41.712Z,6.72
2022-11-26T08:06:44.172Z,6.00
2022-11-26T08:09:46.940Z,6.77
2022-11-26T08:12:49.660Z,6.25
2022-11-26T08:15:54.616Z,6.60
2022-11-26T08:19:01.171Z,6.38
2022-11-26T08:22:03.876Z,6.50
2022-11-26T08:25:07.069Z,6.80
2022-11-26T08:28:09.611Z,6.72
2022-11-26T08:31:13.638Z,6.70
2022-11-26T08:34:17.152Z,6.30
2022-11-26T08:37:19.646Z,6.50
2022-11-26T08:40:22.815Z,6.83
2022-11-26T08:43:45.090Z,6.28
2022-11-26T08:46:48.351Z,6.25
2022-11-26T08:49:50.995Z,6.43
2022-11-26T08:52:54.990Z,6.75
2022-11-26T08:56:07.753Z,6.70
2022-11-26T08:59:10.783Z,6.72
2022-11-26T09:02:18.488Z,6.63
2022-11-26T09:05:21.362Z,7.00
2022-11-26T09:08:27.418Z,7.03
2022-11-26T09:11:32.277Z,6.90
2022-11-26T09:14:39.749Z,5.97
2022-11-26T09:17:42.439Z,6.80
2022-11-26T09:20:45.054Z,6.53
2022-11-26T09:23:47.710Z,6.55
2022-11-26T09:26:50.372Z,6.90
2022-11-26T09:29:52.882Z,6.22
2022-11-26T09:32:55.503Z,6.45
2022-11-26T09:36:09.293Z,5.88
2022-11-26T09:39:13.574Z,6.88
2022-11-26T09:42:52.860Z,6.80
2022-11-26T09:45:59.590Z,6.20
2022-11-26T09:49:05.386Z,6.55
2022-11-26T09:52:10.589Z,6.38
2022-11-26T09:55:20.629Z,6.18
2022-11-26T09:58:57.834Z,6.07
2022-11-26T10:02:00.726Z,6.85
2022-11-26T10:05:03.364Z,6.70
2022-11-26T10:08:20.259Z,6.30
2022-11-26T10:11:23.853Z,6.30
2022-11-26T10:14:38.870Z,6.20
2022-11-26T10:18:09.520Z,6.10
2022-11-26T10:21:44.319Z,6.55
2022-11-26T10:24:50.340Z,6.40
2022-11-26T10:27:56.461Z,6.05
2022-11-26T10:31:04.877Z,6.13
2022-11-26T10:34:18.435Z,6.43
2022-11-26T10:37:23.353Z,6.43
2022-11-26T10:40:28.467Z,6.20
2022-11-26T10:43:30.973Z,6.30
2022-11-26T10:46:35.744Z,5.97
2022-11-26T10:49:38.282Z,6.00
2022-11-26T10:52:41.022Z,6.57
2022-11-26T10:55:43.831Z,6.05
2022-11-26T10:58:48.436Z,6.15
2022-11-26T11:01:55.986Z,6.20
2022-11-26T11:05:04.784Z,5.70
2022-11-26T11:08:13.548Z,6.63
2022-11-26T11:11:26.745Z,6.45
2022-11-26T11:14:29.340Z,5.97
2022-11-26T11:17:38.155Z,6.13
2022-11-26T11:20:43.188Z,6.22
2022-11-26T11:24:07.864Z,6.03
2022-11-26T11:27:26.416Z,6.10
2022-11-26T11:30:35.617Z,6.28
2022-11-26T11:33:38.318Z,6.27
2022-11-26T11:36:41.541Z,6.00
2022-11-26T11:39:44.901Z,6.35
2022-11-26T11:42:53.171Z,6.05
2022-11-26T11:46:17.137Z,5.97
2022-11-26T11:49:58.654Z,5.97
2022-11-26T11:53:27.154Z,5.80
2022-11-26T11:56:36.814Z,5.80
2022-11-26T12:00:21.162Z,5.95
2022-11-26T12:03:23.575Z,6.03
2022-11-26T12:06:41.749Z,6.17
2022-11-26T12:10:05.713Z,6.03
2022-11-26T12:13:12.942Z,6.00
2022-11-26T12:16:17.865Z,6.22
2022-11-26T12:19:38.558Z,6.00
2022-11-26T12:22:53.570Z,6.17
2022-11-26T12:26:10.219Z,6.43
2022-11-26T12:29:37.080Z,6.40
2022-11-26T12:32:54.254Z,6.05
2022-11-26T12:36:01.225Z,6.30
2022-11-26T12:39:18.541Z,6.30
2022-11-26T12:42:57.318Z,5.80
2022-11-26T12:46:14.691Z,6.00
2022-11-26T12:49:31.810Z,6.40
2022-11-26T12:53:07.812Z,6.35
2022-11-26T12:56:41.752Z,6.43
2022-11-26T12:59:54.876Z,5.82
2022-11-26T13:02:57.430Z,6.38
2022-11-26T13:06:02.773Z,6.40
2022-11-26T13:09:26.502Z,6.40
2022-11-26T13:12:48.151Z,6.30
2022-11-26T13:16:12.644Z,6.03
2022-11-26T13:19:29.440Z,6.82
2022-11-26T13:22:40.965Z,6.32
2022-11-26T13:26:08.606Z,6.63
2022-11-26T13:29:29.699Z,6.40
2022-11-26T13:32:53.908Z,6.05
2022-11-26T13:36:18.785Z,6.53
2022-11-26T13:39:42.426Z,6.38
2022-11-26T13:43:20.052Z,6.60
2022-11-26T13:46:36.723Z,6.27
2022-11-26T13:49:58.950Z,6.47
2022-11-26T13:53:12.325Z,6.22
2022-11-26T13:56:22.560Z,6.43
2022-11-26T13:59:28.651Z,6.95
2022-11-26T14:02:44.564Z,6.07
2022-11-26T14:05:50.208Z,6.38
2022-11-26T14:08:54.137Z,6.60
2022-11-26T14:11:57.545Z,6.50
2022-11-26T14:14:59.981Z,6.50
2022-11-26T14:18:02.863Z,6.67
2022-11-26T14:21:08.060Z,6.43
2022-11-26T14:24:10.722Z,6.90
2022-11-26T14:27:13.939Z,6.97
2022-11-26T14:30:20.521Z,7.20
2022-11-26T14:33:28.361Z,6.70
2022-11-26T14:36:32.201Z,7.18
2022-11-26T14:39:34.739Z,6.80
2022-11-26T14:42:37.281Z,6.75
2022-11-26T14:45:40.794Z,7.45
2022-11-26T14:48:46.350Z,6.53
2022-11-26T14:51:50.484Z,6.90
2022-11-26T14:54:56.411Z,6.82
2022-11-26T14:58:14.748Z,7.15
2022-11-26T15:01:27.435Z,7.30
2022-11-26T15:04:34.816Z,7.70
2022-11-26T15:07:37.390Z,7.43
2022-11-26T15:10:49.515Z,7.43
2022-11-26T15:13:53.119Z,7.03
2022-11-26T15:17:06.314Z,7.53
2022-11-26T15:20:15.227Z,8.07
2022-11-26T15:23:19.046Z,7.75
2022-11-26T15:26:22.956Z,7.88
2022-11-26T15:29:35.063Z,7.97
2022-11-26T15:32:37.583Z,8.48
2022-11-26T15:35:41.897Z,8.20
2022-11-26T15:39:03.323Z,7.38
2022-11-26T15:42:31.313Z,7.75
2022-11-26T15:45:39.885Z,8.52
2022-11-26T15:48:57.491Z,8.75
2022-11-26T15:52:04.268Z,7.90
2022-11-26T15:55:12.841Z,9.35
2022-11-26T15:58:24.427Z,9.30
2022-11-26T16:01:32.875Z,9.13
2022-11-26T16:04:49.978Z,10.43
2022-11-26T16:08:30.488Z,9.20
2022-11-26T16:11:37.501Z,9.48
2022-11-26T16:14:40.817Z,9.80
2022-11-26T16:17:44.164Z,10.73
2022-11-26T16:20:47.128Z,9.80
2022-11-26T16:24:00.471Z,9.83
2022-11-26T16:27:06.247Z,9.77
2022-11-26T16:30:16.361Z,10.40
2022-11-26T16:33:19.626Z,11.07
2022-11-26T16:36:25.280Z,10.65
2022-11-26T16:39:30.338Z,9.87
2022-11-26T16:42:33.581Z,10.38
2022-11-26T16:45:36.323Z,9.95
2022-11-26T16:48:40.659Z,10.15
2022-11-26T16:51:43.222Z,9.88
2022-11-26T16:54:45.940Z,9.97
2022-11-26T16:57:56.670Z,9.35
2022-11-26T17:01:00.467Z,10.65
2022-11-26T17:04:03.399Z,9.90
2022-11-26T17:07:05.902Z,11.40
2022-11-26T17:10:16.826Z,10.70
2022-11-26T17:13:21.109Z,10.68
2022-11-26T17:16:24.196Z,11.38
2022-11-26T17:19:26.738Z,10.82
2022-11-26T17:22:29.799Z,11.30
2022-11-26T17:25:32.442Z,11.07
2022-11-26T17:28:35.195Z,11.35
2022-11-26T17:31:37.749Z,11.55
2022-11-26T17:34:41.013Z,11.18
2022-11-26T17:37:43.966Z,10.70
2022-11-26T17:40:48.050Z,11.10
2022-11-26T17:43:50.606Z,10.80
2022-11-26T17:47:15.699Z,11.25
2022-11-26T17:50:22.706Z,11.25
2022-11-26T17:53:25.769Z,12.32
2022-11-26T17:56:28.567Z,10.57
2022-11-26T17:59:33.495Z,11.15
2022-11-26T18:02:36.149Z,12.00
2022-11-26T18:05:41.972Z,11.80
2022-11-26T18:08:46.215Z,12.13
2022-11-26T18:11:52.377Z,11.87
2022-11-26T18:14:56.183Z,12.60
2022-11-26T18:17:58.877Z,12.10
2022-11-26T18:21:01.957Z,11.52
2022-11-26T18:24:06.481Z,12.68
2022-11-26T18:27:09.207Z,12.13
2022-11-26T18:30:12.884Z,12.20
2022-11-26T18:33:16.411Z,12.63
2022-11-26T18:36:20.295Z,13.75
2022-11-26T18:39:23.408Z,14.18
2022-11-26T18:42:42.042Z,14.40
2022-11-26T18:45:45.052Z,14.13
2022-11-26T18:48:49.442Z,15.02
2022-11-26T18:51:53.240Z,16.80
2022-11-26T18:54:56.198Z,15.25
2022-11-26T18:57:58.741Z,15.53
2022-11-26T19:01:02.145Z,15.60
2022-11-26T19:04:05.854Z,17.00
2022-11-26T19:07:09.478Z,16.50
2022-11-26T19:10:13.220Z,16.88
2022-11-26T19:13:16.676Z,16.90
2022-11-26T19:16:20.797Z,17.63
2022-11-26T19:19:24.994Z,17.95
2022-11-26T19:22:28.024Z,18.40
2022-11-26T19:25:32.038Z,17.95
2022-11-26T19:28:36.343Z,18.50
2022-11-26T19:31:40.214Z,18.52
2022-11-26T19:34:43.149Z,18.48
2022-11-26T19:37:49.638Z,18.70
2022-11-26T19:41:00.303Z,18.92
2022-11-26T19:44:05.818Z,18.53
2022-11-26T19:47:09.040Z,18.35
2022-11-26T19:50:12.967Z,19.63
2022-11-26T19:53:17.333Z,19.70
2022-11-26T19:56:26.180Z,20.45
2022-11-26T19:59:29.059Z,20.27
2022-11-26T20:02:32.053Z,24.88
2022-11-26T20:05:34.915Z,24.08
2022-11-26T20:08:40.040Z,25.38
2022-11-26T20:11:43.276Z,27.27
2022-11-26T20:14:49.044Z,27.50
2022-11-26T20:17:52.160Z,28.85
2022-11-26T20:21:00.348Z,29.08
2022-11-26T20:24:14.656Z,27.27
2022-11-26T20:27:17.315Z,27.55
2022-11-26T20:30:20.697Z,28.43
2022-11-26T20:33:23.817Z,28.80
2022-11-26T20:36:26.760Z,29.55
2022-11-26T20:39:30.256Z,28.75
2022-11-26T20:42:33.656Z,30.67
2022-11-26T20:45:37.097Z,28.10
2022-11-26T20:48:42.039Z,27.23
2022-11-26T20:51:45.284Z,28.83
2022-11-26T20:54:53.860Z,28.23
2022-11-26T20:57:57.133Z,29.23
2022-11-26T21:01:01.885Z,27.33
2022-11-26T21:04:04.649Z,27.50
2022-11-26T21:07:07.432Z,26.45
2022-11-26T21:10:10.688Z,26.52
2022-11-26T21:13:15.860Z,27.13
2022-11-26T21:16:19.314Z,26.20
2022-11-26T21:19:22.816Z,26.25
2022-11-26T21:22:25.279Z,26.80
2022-11-26T21:25:28.061Z,25.50
2022-11-26T21:28:30.627Z,27.30
2022-11-26T21:31:33.913Z,27.03
2022-11-26T21:34:36.497Z,26.38
2022-11-26T21:37:39.016Z,26.52
2022-11-26T21:40:43.024Z,26.92
2022-11-26T21:43:47.427Z,26.35
2022-11-26T21:46:51.247Z,25.33
2022-11-26T21:49:57.111Z,26.38
2022-11-26T21:53:01.578Z,27.00
2022-11-26T21:56:19.540Z,27.00
2022-11-26T21:59:24.707Z,26.42
2022-11-26T22:02:27.263Z,25.60
2022-11-26T22:05:29.805Z,26.45
2022-11-26T22:08:33.067Z,26.58
2022-11-26T22:11:39.728Z,25.60
2022-11-26T22:14:42.422Z,26.60
2022-11-26T22:17:44.903Z,26.27
2022-11-26T22:20:52.785Z,25.58
2022-11-26T22:23:55.928Z,26.38
2022-11-26T22:26:59.432Z,26.27
2022-11-26T22:30:03.197Z,25.30
2022-11-26T22:33:07.422Z,26.30
2022-11-26T22:36:10.301Z,25.25
2022-11-26T22:39:15.364Z,26.73
2022-11-26T22:42:17.819Z,25.95
2022-11-26T22:45:20.320Z,26.65
2022-11-26T22:48:22.992Z,24.63
2022-11-26T22:51:27.648Z,24.85
2022-11-26T22:54:32.833Z,25.52
2022-11-26T22:57:35.901Z,25.83
2022-11-26T23:00:54.748Z,25.17
2022-11-26T23:03:59.132Z,24.60
2022-11-26T23:07:01.709Z,23.58
2022-11-26T23:10:04.621Z,23.30
2022-11-26T23:13:11.629Z,23.70
2022-11-26T23:16:15.194Z,24.05
2022-11-26T23:19:17.819Z,23.73
2022-11-26T23:22:21.167Z,22.92
2022-11-26T23:25:23.603Z,22.50
2022-11-26T23:28:26.225Z,21.95
2022-11-26T23:31:34.605Z,22.02
2022-11-26T23:34:37.333Z,21.40
2022-11-26T23:37:39.936Z,22.52
2022-11-26T23:40:42.867Z,22.23
2022-11-26T23:43:45.852Z,21.33
2022-11-26T23:46:48.408Z,21.42
2022-11-26T23:49:50.960Z,21.40
2022-11-26T23:52:53.616Z,20.65
2022-11-26T23:56:02.635Z,21.13
2022-11-26T23:59:05.360Z,20.80
